メインページ
METAR-TAF:

METAR-TAF

空港 :

Quesnel, ブリティッシュコロンビア州, カナダ

緯度: 53-02N, 経度: 122-31W, 海抜: 545m

現時点の気象観測

当レポートは44分前の04:00(UTC)に作成
無風
気温 -5°C
湿度 93%
気圧 1033 hPa
視程: 14.5km
高度1500ftの曇り

METAR: CYQZ 170400Z AUTO 00000KT 9SM OVC015 M05/M06 A3051 RMK SLP371

時間: 20:44 (04:44 UTC)

予報

当レポートは4時間5分前の00:39(UTC)に作成
予報は17日の 01時(UTC)から 17日の 06時(UTC)まで有効
変向風 3kt
視程: 10km
高度1000ftの雲はほとんどない
17日の 01時(UTC)から 17日の 06時(UTC)まで一時的に
視程: 4.8km
高度1000ftの千切れ雲あり

TAF: CYQZ 170039Z 1701/1706 VRB03KT P6SM FEW010 TEMPO 1701/1706 3SM BR BKN010 RMK FCST BASED ON AUTO OBS. NXT FCST WILL BE ISSUED AT 171145Z

4,000以上の空港の気象観測と天気予報(METAR報とTAF報)

利用可能な観測所は地図上に黄色い丸と赤い丸で示す。

丸の上にカーソルを重ねると観測所名を参照できる。

次にクリックすると気象観測と天気予報を参照できる。

マップの切り替え:黒色「×」印の緑ボタンをクリックして拡大、「-」印の緑ボタンをクリックして縮小、緑色の三角印をクリックして隣りの地図に切り替え


METAR-TAF: